Time;durP1;ratioP1;P1;durP2;ratioP2;P2;SDS_P1;SDS_P2;PMS_P1;PMS_P2;Temp;Humidity;BMP_temperature;BMP_pressure;BME280_temperature;BME280_humidity;BME280_pressure;Samples;Min_cycle;Max_cycle;Signal;HPM_P1;HPM_P2
2022/12/24 00:01:45;;;;;;;88.20;37.50;;;;;;;-1.44;100.00;100606.94;105437;1266;71179;-80
2022/12/24 00:04:14;;;;;;;91.20;36.40;;;;;;;-1.36;100.00;100607.09;105556;1260;59969;-81
2022/12/24 00:06:43;;;;;;;86.80;36.50;;;;;;;-1.33;100.00;100606.50;105586;1266;60744;-78
2022/12/24 00:09:12;;;;;;;84.80;38.60;;;;;;;-1.35;100.00;100612.86;105562;1269;71138;-77
2022/12/24 00:11:41;;;;;;;85.80;34.30;;;;;;;-1.31;100.00;100614.63;105568;1275;70182;-77
2022/12/24 00:14:10;;;;;;;83.70;36.10;;;;;;;-1.29;100.00;100614.77;105573;1260;70448;-75
2022/12/24 00:16:38;;;;;;;83.50;32.70;;;;;;;-1.32;100.00;100614.68;105460;1266;74004;-77
2022/12/24 00:19:08;;;;;;;85.60;35.10;;;;;;;-1.35;100.00;100608.09;105524;1265;61508;-74
2022/12/24 00:21:36;;;;;;;85.30;36.70;;;;;;;-1.31;100.00;100605.59;105611;1262;60483;-74
2022/12/24 00:24:05;;;;;;;83.00;35.30;;;;;;;-1.32;100.00;100601.19;105457;1267;71533;-75
2022/12/24 10:07:29;;;;;;;48.80;25.40;;;;;;;1.85;87.14;100409.27;102744;1298;599740;-72
2022/12/24 10:10:10;;;;;;;51.30;26.80;;;;;;;1.81;87.04;100410.28;105477;1272;60816;-73
2022/12/24 10:13:06;;;;;;;48.40;26.80;;;;;;;1.69;88.08;100408.39;105493;1269;61226;-72
2022/12/24 10:16:08;;;;;;;46.50;25.60;;;;;;;1.75;88.15;100404.02;105151;1275;71427;-76
2022/12/24 10:19:17;;;;;;;50.80;26.80;;;;;;;1.79;88.18;100405.73;105494;1263;71261;-74
2022/12/24 10:21:52;;;;;;;50.00;27.20;;;;;;;1.77;88.16;100384.05;104591;1271;68890;-83
2022/12/24 10:24:46;;;;;;;46.90;26.20;;;;;;;1.92;89.01;100408.30;105887;1267;70987;-84
2022/12/24 10:27:24;;;;;;;50.70;27.80;;;;;;;2.01;87.85;100404.34;105756;1263;58942;-84
2022/12/24 10:30:02;;;;;;;53.20;27.10;;;;;;;1.91;87.99;100404.41;105998;1260;61318;-84
2022/12/24 10:32:34;;;;;;;51.30;27.80;;;;;;;2.01;88.82;100408.29;106396;1266;69634;-83
2022/12/24 10:35:18;;;;;;;53.90;27.00;;;;;;;2.18;88.20;100409.48;106659;1264;69390;-80
2022/12/24 10:37:48;;;;;;;;;;;;;;;2.23;87.52;100409.41;106380;1265;69577;-82
2022/12/24 10:40:41;;;;;;;49.50;26.50;;;;;;;2.22;87.42;100411.89;107780;1258;74110;-80
2022/12/24 10:43:17;;;;;;;51.90;27.80;;;;;;;2.17;87.37;100416.73;108004;1264;59609;-84
2022/12/24 10:46:00;;;;;;;49.30;27.20;;;;;;;2.06;87.15;100418.04;107956;1258;61331;-85
2022/12/24 10:48:39;;;;;;;52.60;26.40;;;;;;;2.03;87.09;100422.63;107599;1262;70613;-84
2022/12/24 10:51:17;;;;;;;52.20;27.60;;;;;;;2.17;87.31;100424.27;107780;1269;70266;-82
2022/12/24 10:53:55;;;;;;;50.30;27.10;;;;;;;2.33;86.80;100418.95;107747;1265;68592;-90
2022/12/24 10:56:24;;;;;;;50.10;28.00;;;;;;;2.45;87.55;100418.26;107709;1262;72117;-90
2022/12/24 10:58:54;;;;;;;49.10;28.80;;;;;;;2.63;87.01;100420.39;107919;1267;60712;-87
2022/12/24 11:01:46;;;;;;;54.00;29.60;;;;;;;2.62;86.18;100417.02;107776;1262;60319;-86
2022/12/24 11:04:20;;;;;;;56.00;29.60;;;;;;;2.63;85.77;100417.46;107743;1259;72295;-75
2022/12/24 11:07:05;;;;;;;56.40;28.40;;;;;;;2.80;85.83;100417.27;107850;1260;61968;-85
2022/12/24 11:09:42;;;;;;;54.20;27.70;;;;;;;2.80;84.39;100417.08;107690;1266;68714;-84
2022/12/24 11:12:22;;;;;;;54.50;28.20;;;;;;;2.76;84.73;100415.52;107694;1268;73597;-86
2022/12/24 11:15:33;;;;;;;47.70;26.60;;;;;;;2.50;85.09;100412.70;107632;1262;57606;-86
2022/12/24 11:18:14;;;;;;;56.70;29.50;;;;;;;2.53;85.56;100411.39;107796;1260;60575;-86
2022/12/24 11:20:50;;;;;;;46.00;24.80;;;;;;;2.40;86.47;100403.69;107559;1258;72684;-87
2022/12/24 11:23:22;;;;;;;48.90;25.90;;;;;;;2.50;86.32;100408.75;107692;1259;72110;-89
2022/12/24 11:25:52;;;;;;;44.50;24.20;;;;;;;2.41;86.91;100409.84;107745;1259;69609;-89
2022/12/24 11:28:32;;;;;;;46.30;24.80;;;;;;;2.37;86.74;100413.44;107783;1258;73945;-87
2022/12/24 11:31:20;;;;;;;44.60;25.30;;;;;;;2.26;88.16;100409.61;107574;1259;60788;-84
2022/12/24 11:33:54;;;;;;;44.20;24.70;;;;;;;2.20;88.01;100414.51;107525;1268;58751;-88
2022/12/24 11:36:26;;;;;;;44.30;25.10;;;;;;;2.17;88.82;100411.73;107580;1266;71846;-82
2022/12/24 11:38:57;;;;;;;43.30;23.70;;;;;;;2.20;89.35;100411.77;107829;1257;71134;-83
2022/12/24 11:41:36;;;;;;;47.60;26.50;;;;;;;2.32;89.49;100410.40;107511;1262;59574;-82
2022/12/24 11:44:09;;;;;;;50.00;24.70;;;;;;;2.20;90.26;100415.23;107312;1265;73090;-83
2022/12/24 11:46:45;;;;;;;45.60;25.00;;;;;;;2.20;90.39;100411.78;107599;1262;60564;-83
2022/12/24 11:49:25;;;;;;;46.10;25.00;;;;;;;2.16;91.46;100406.48;107759;1261;60203;-84
2022/12/24 11:52:09;;;;;;;51.50;28.00;;;;;;;2.27;90.83;100403.55;107676;1264;71818;-83
2022/12/24 11:55:05;;;;;;;50.10;27.60;;;;;;;2.33;90.87;100401.95;107865;1253;60835;-85
2022/12/24 11:57:59;;;;;;;45.40;24.30;;;;;;;2.36;92.35;100395.63;107684;1260;68643;-84
2022/12/24 12:00:28;;;;;;;46.60;26.10;;;;;;;2.38;92.21;100393.80;107614;1268;62526;-86
2022/12/24 12:03:01;;;;;;;48.00;26.70;;;;;;;2.51;92.35;100393.79;107698;1256;61726;-89
2022/12/24 12:05:35;;;;;;;42.50;25.20;;;;;;;2.38;93.09;100398.11;107574;1266;57711;-88
2022/12/24 12:08:19;;;;;;;46.10;25.30;;;;;;;2.35;92.88;100398.23;107671;1269;71688;-84
2022/12/24 12:10:50;;;;;;;47.60;27.30;;;;;;;2.28;93.27;100398.37;107814;1257;72677;-86
2022/12/24 12:13:32;;;;;;;44.30;24.60;;;;;;;2.20;94.25;100396.48;107481;1262;60432;-84
2022/12/24 12:16:24;;;;;;;47.50;26.20;;;;;;;2.21;95.49;100397.11;107636;1263;73802;-85
2022/12/24 12:19:03;;;;;;;48.40;26.50;;;;;;;2.14;95.45;100399.16;107712;1259;61542;-87
2022/12/24 12:21:45;;;;;;;44.40;26.90;;;;;;;2.08;96.02;100402.48;107654;1266;60286;-85
2022/12/24 12:24:23;;;;;;;50.00;26.80;;;;;;;2.17;97.64;100406.60;107804;1259;71699;-86
2022/12/24 12:27:20;;;;;;;53.60;29.20;;;;;;;2.07;97.89;100407.52;107792;1264;61954;-87
2022/12/24 12:30:14;;;;;;;49.30;28.40;;;;;;;2.17;98.69;100409.66;107670;1255;59793;-86
2022/12/24 12:33:21;;;;;;;49.00;28.20;;;;;;;2.18;97.56;100416.50;107518;1269;63283;-85
2022/12/24 12:35:52;;;;;;;47.50;28.20;;;;;;;2.09;98.33;100419.95;107698;1251;57703;-81
2022/12/24 12:38:30;;;;;;;51.30;29.10;;;;;;;1.98;99.30;100418.20;107448;1259;62218;-82
2022/12/24 12:41:20;;;;;;;54.90;30.00;;;;;;;2.05;99.72;100418.77;107545;1266;61991;-80
2022/12/24 12:44:19;;;;;;;55.90;30.60;;;;;;;2.05;100.00;100423.05;107559;1257;61570;-78
2022/12/24 12:47:30;;;;;;;58.30;30.90;;;;;;;2.05;100.00;100424.77;107721;1269;60005;-80
2022/12/24 12:50:12;;;;;;;52.40;29.70;;;;;;;1.92;100.00;100433.23;107556;1270;62540;-82
2022/12/24 12:53:01;;;;;;;52.50;30.10;;;;;;;1.80;100.00;100440.73;107570;1266;58123;-82
2022/12/24 12:56:05;;;;;;;57.50;29.70;;;;;;;1.84;100.00;100447.77;107731;1259;61267;-80
2022/12/24 12:58:57;;;;;;;56.20;33.50;;;;;;;1.90;100.00;100449.61;107703;1260;62702;-84
2022/12/24 13:01:48;;;;;;;56.70;30.90;;;;;;;1.99;100.00;100457.33;107743;1260;60854;-83
2022/12/24 13:05:05;;;;;;;56.40;29.20;;;;;;;2.07;100.00;100457.81;107524;1262;69724;-83
2022/12/24 13:08:17;;;;;;;61.50;32.60;;;;;;;2.12;100.00;100462.13;107646;1263;74087;-83
2022/12/24 13:11:03;;;;;;;61.80;32.90;;;;;;;2.11;100.00;100469.69;107554;1263;61853;-82
2022/12/24 13:13:50;;;;;;;61.30;33.00;;;;;;;2.11;100.00;100473.63;107688;1267;61469;-78
2022/12/24 13:17:40;;;;;;;61.70;31.80;;;;;;;2.13;100.00;100482.86;107684;1266;72581;-84
2022/12/24 13:20:14;;;;;;;63.20;31.00;;;;;;;2.02;100.00;100486.05;107168;1269;62233;-86
2022/12/24 13:22:56;;;;;;;51.70;28.50;;;;;;;1.92;100.00;100484.75;107586;1263;70498;-84
2022/12/24 13:25:42;;;;;;;54.90;30.80;;;;;;;1.87;100.00;100482.20;107526;1264;62877;-85
2022/12/24 13:28:33;;;;;;;61.90;34.90;;;;;;;1.90;100.00;100483.62;107450;1262;58099;-87
2022/12/24 13:31:20;;;;;;;62.00;30.80;;;;;;;1.81;100.00;100483.45;107551;1263;57413;-88
2022/12/24 13:33:55;;;;;;;50.60;28.50;;;;;;;1.73;100.00;100484.11;107574;1263;72077;-83
2022/12/24 13:36:44;;;;;;;53.80;30.40;;;;;;;1.71;100.00;100485.41;107741;1261;61950;-85
2022/12/24 13:39:19;;;;;;;51.90;29.10;;;;;;;1.67;100.00;100481.93;107563;1259;70510;-84
2022/12/24 13:41:51;;;;;;;54.80;29.80;;;;;;;1.64;100.00;100474.67;107572;1261;74597;-83
2022/12/24 13:44:23;;;;;;;55.60;30.20;;;;;;;1.55;100.00;100472.48;107773;1263;57713;-87
2022/12/24 13:47:17;;;;;;;58.40;31.40;;;;;;;1.48;100.00;100479.62;107565;1260;59747;-83
2022/12/24 13:49:52;;;;;;;52.30;27.40;;;;;;;1.38;100.00;100483.77;107449;1263;72709;-82
2022/12/24 13:52:29;;;;;;;54.80;30.10;;;;;;;1.39;100.00;100481.15;107425;1268;70580;-84
2022/12/24 13:54:58;;;;;;;55.60;30.90;;;;;;;1.50;100.00;100477.46;107429;1264;70585;-83
2022/12/24 13:57:38;;;;;;;55.70;30.50;;;;;;;1.53;100.00;100474.44;107488;1269;73376;-85
2022/12/24 14:00:19;;;;;;;56.60;30.50;;;;;;;1.60;100.00;100469.02;107514;1266;58081;-84
2022/12/24 14:02:53;;;;;;;55.10;30.00;;;;;;;1.64;100.00;100466.09;107612;1254;57667;-83
2022/12/24 14:05:45;;;;;;;55.90;31.60;;;;;;;1.60;100.00;100455.27;107613;1259;72613;-87
2022/12/24 14:08:23;;;;;;;55.00;30.90;;;;;;;1.59;100.00;100446.90;107709;1264;62013;-86
2022/12/24 14:11:15;;;;;;;58.20;32.50;;;;;;;1.55;100.00;100442.27;107747;1263;69171;-85
2022/12/24 14:14:02;;;;;;;58.10;31.20;;;;;;;1.54;100.00;100440.07;107420;1272;63057;-86
2022/12/24 14:16:42;;;;;;;59.70;31.20;;;;;;;1.46;100.00;100447.40;107578;1257;57716;-85
2022/12/24 14:19:21;;;;;;;54.80;29.70;;;;;;;1.42;100.00;100449.81;107599;1260;57947;-85
2022/12/24 14:22:17;;;;;;;59.50;31.90;;;;;;;1.46;100.00;100454.98;107671;1266;61352;-87
2022/12/24 14:24:57;;;;;;;58.10;30.60;;;;;;;1.37;100.00;100458.91;107969;1257;60883;-86
2022/12/24 14:27:45;;;;;;;57.10;30.40;;;;;;;1.49;100.00;100456.91;107649;1259;70455;-83
2022/12/24 14:30:27;;;;;;;55.20;31.60;;;;;;;1.54;100.00;100453.27;107836;1258;73389;-77
2022/12/24 14:32:56;;;;;;;60.30;32.90;;;;;;;1.61;100.00;100451.29;107889;1261;59991;-89
2022/12/24 14:35:34;;;;;;;62.00;32.60;;;;;;;1.53;100.00;100457.27;107667;1268;57595;-88
2022/12/24 14:38:14;;;;;;;64.40;33.30;;;;;;;1.54;100.00;100458.08;107765;1256;61213;-86
2022/12/24 14:41:16;;;;;;;59.60;32.60;;;;;;;1.46;100.00;100459.77;107630;1268;72965;-90
2022/12/24 14:43:58;;;;;;;55.30;31.30;;;;;;;1.44;100.00;100463.98;107545;1271;68192;-91
2022/12/24 14:46:55;;;;;;;62.90;32.80;;;;;;;1.48;100.00;100470.16;107674;1269;73421;-90
2022/12/24 14:49:27;;;;;;;64.40;32.30;;;;;;;1.46;100.00;100473.86;107628;1263;60751;-91
2022/12/24 14:52:22;;;;;;;60.70;32.20;;;;;;;1.47;100.00;100473.30;107640;1273;61049;-90
2022/12/24 14:55:35;;;;;;;61.20;32.40;;;;;;;1.59;100.00;100471.64;107803;1256;63695;-84
2022/12/24 14:58:31;;;;;;;60.70;32.40;;;;;;;1.62;100.00;100467.20;107710;1254;60911;-83
2022/12/24 15:01:24;;;;;;;59.70;34.40;;;;;;;1.57;100.00;100470.68;107771;1266;60112;-88
2022/12/24 15:04:04;;;;;;;56.40;30.50;;;;;;;1.60;100.00;100481.19;107554;1267;63332;-91
2022/12/24 15:06:51;;;;;;;66.10;32.90;;;;;;;1.65;100.00;100486.49;107755;1260;61076;-79
2022/12/24 15:09:33;;;;;;;59.10;31.80;;;;;;;1.72;100.00;100492.23;107854;1257;61234;-79
2022/12/24 15:12:23;;;;;;;58.70;31.30;;;;;;;1.78;100.00;100493.86;107431;1272;62961;-95
2022/12/24 15:14:57;;;;;;;58.30;32.30;;;;;;;1.74;100.00;100498.67;107773;1262;61006;-93
2022/12/24 15:17:26;;;;;;;57.10;31.50;;;;;;;1.72;100.00;100504.40;107652;1266;60077;-92
2022/12/24 15:19:58;;;;;;;59.00;30.70;;;;;;;1.77;100.00;100506.47;107503;1254;63529;-89
2022/12/24 15:22:31;;;;;;;61.20;32.70;;;;;;;1.83;100.00;100512.40;107586;1272;62007;-88
2022/12/24 15:25:00;;;;;;;56.80;31.60;;;;;;;1.86;100.00;100511.58;107605;1259;61226;-92
2022/12/24 15:27:32;;;;;;;58.00;32.40;;;;;;;1.89;100.00;100509.08;107688;1269;73290;-88
2022/12/24 15:30:14;;;;;;;61.30;33.10;;;;;;;1.92;100.00;100510.15;107833;1264;62126;-85
2022/12/24 15:32:43;;;;;;;53.20;29.80;;;;;;;1.92;100.00;100513.06;107649;1272;70591;-85
2022/12/24 15:35:45;;;;;;;58.30;32.40;;;;;;;1.96;100.00;100516.02;107638;1258;72872;-83
2022/12/24 15:38:34;;;;;;;57.30;32.20;;;;;;;1.96;100.00;100528.22;107612;1262;61078;-84
2022/12/24 15:41:15;;;;;;;58.20;31.50;;;;;;;1.95;100.00;100524.45;107659;1264;60912;-86
2022/12/24 15:43:47;;;;;;;59.00;31.40;;;;;;;1.96;100.00;100531.30;107477;1260;73963;-87
2022/12/24 15:46:23;;;;;;;55.10;31.10;;;;;;;1.87;100.00;100525.45;107689;1262;61253;-90
2022/12/24 15:48:55;;;;;;;55.90;31.30;;;;;;;1.90;100.00;100527.59;107696;1265;59219;-89
2022/12/24 15:51:50;;;;;;;55.70;32.60;;;;;;;1.97;100.00;100525.75;107760;1260;74689;-84
2022/12/24 15:54:21;;;;;;;62.50;32.60;;;;;;;2.00;100.00;100524.45;107701;1269;61581;-86
2022/12/24 15:56:52;;;;;;;56.40;32.90;;;;;;;1.90;100.00;100527.41;107856;1256;62283;-82
2022/12/24 15:59:30;;;;;;;63.80;35.60;;;;;;;1.92;100.00;100526.29;107427;1264;73949;-84
2022/12/24 16:02:42;;;;;;;59.20;31.60;;;;;;;1.88;100.00;100533.00;107593;1264;73148;-71
2022/12/24 16:05:32;;;;;;;58.90;32.30;;;;;;;1.88;100.00;100534.00;107344;1269;69907;-86
2022/12/24 16:08:12;;;;;;;55.50;31.90;;;;;;;1.86;100.00;100539.24;107367;1273;73446;-85
2022/12/24 16:11:09;;;;;;;60.40;31.90;;;;;;;1.84;100.00;100540.16;107787;1259;57136;-84
2022/12/24 16:13:50;;;;;;;57.80;32.50;;;;;;;1.90;100.00;100543.23;107642;1263;60221;-86
2022/12/24 16:16:29;;;;;;;59.30;30.50;;;;;;;1.89;100.00;100548.90;108026;1260;62549;-85
2022/12/24 16:19:01;;;;;;;50.30;29.60;;;;;;;1.77;100.00;100546.11;108116;1261;71346;-86
2022/12/24 16:21:40;;;;;;;54.90;29.10;;;;;;;1.63;100.00;100540.83;107648;1267;69375;-88
2022/12/24 16:24:30;;;;;;;54.10;31.20;;;;;;;1.59;100.00;100546.47;107588;1262;63449;-86
2022/12/24 16:27:00;;;;;;;54.60;30.20;;;;;;;1.50;100.00;100548.88;107745;1263;62044;-85
2022/12/24 16:29:29;;;;;;;59.00;31.60;;;;;;;1.35;100.00;100544.10;107719;1266;57667;-84
2022/12/24 16:31:58;;;;;;;54.70;31.50;;;;;;;1.33;100.00;100546.39;107690;1264;73506;-86
2022/12/24 16:34:30;;;;;;;58.90;32.60;;;;;;;1.52;100.00;100547.91;107713;1254;71444;-85
2022/12/24 16:37:00;;;;;;;61.00;32.40;;;;;;;1.55;100.00;100548.67;107564;1271;59410;-86
2022/12/24 16:39:32;;;;;;;60.30;31.60;;;;;;;1.65;100.00;100554.50;107727;1259;73040;-86
2022/12/24 16:44:52;;;;;;;61.70;35.10;;;;;;;1.64;100.00;100549.39;107662;1260;57387;-84
2022/12/24 16:47:29;;;;;;;60.00;34.80;;;;;;;1.68;100.00;100545.95;107758;1263;63323;-87
2022/12/24 16:50:07;;;;;;;58.70;34.10;;;;;;;1.76;100.00;100556.27;107891;1260;69514;-85
2022/12/24 16:52:36;;;;;;;63.70;34.30;;;;;;;1.81;100.00;100552.46;107575;1263;67984;-87
2022/12/24 16:55:05;;;;;;;55.70;32.50;;;;;;;1.84;100.00;100553.73;107661;1259;72530;-86
2022/12/24 16:57:34;;;;;;;63.60;33.50;;;;;;;1.86;100.00;100553.32;107746;1259;57536;-85
2022/12/24 17:00:07;;;;;;;57.40;32.80;;;;;;;1.89;100.00;100557.52;107706;1263;61937;-86
2022/12/24 17:02:38;;;;;;;55.50;31.30;;;;;;;1.88;100.00;100564.60;107434;1268;73215;-86
2022/12/24 17:05:08;;;;;;;56.90;30.20;;;;;;;1.87;100.00;100572.02;107709;1272;72550;-85
2022/12/24 17:07:37;;;;;;;54.40;27.90;;;;;;;1.97;100.00;100580.20;107591;1266;60219;-87
2022/12/24 17:10:12;;;;;;;53.30;28.50;;;;;;;1.98;100.00;100587.05;107587;1259;63199;-87
2022/12/24 17:12:42;;;;;;;56.60;32.20;;;;;;;1.88;100.00;100594.12;107490;1267;60032;-85
2022/12/24 17:15:11;;;;;;;55.10;31.20;;;;;;;1.76;100.00;100601.08;107693;1261;59445;-88
2022/12/24 17:17:40;;;;;;;58.40;32.20;;;;;;;1.75;100.00;100604.41;107762;1260;72619;-85
2022/12/24 17:20:10;;;;;;;55.00;31.80;;;;;;;1.71;100.00;100600.08;107827;1259;71546;-85
2022/12/24 17:22:39;;;;;;;57.60;34.70;;;;;;;1.65;100.00;100604.44;107593;1262;60390;-88
2022/12/24 17:25:11;;;;;;;61.60;34.10;;;;;;;1.59;100.00;100607.23;107339;1270;63472;-85
2022/12/24 17:27:41;;;;;;;62.40;35.60;;;;;;;1.60;100.00;100605.98;107291;1265;57131;-87
2022/12/24 17:30:11;;;;;;;67.80;36.60;;;;;;;1.58;100.00;100604.17;107332;1266;61315;-86
2022/12/24 17:32:40;;;;;;;64.50;36.00;;;;;;;1.58;100.00;100614.64;107431;1263;72895;-87
2022/12/24 17:35:09;;;;;;;68.10;35.90;;;;;;;1.58;100.00;100619.63;107642;1260;72173;-87
2022/12/24 17:37:38;;;;;;;70.20;37.10;;;;;;;1.60;100.00;100626.77;107316;1266;59504;-86
2022/12/24 17:40:08;;;;;;;75.30;39.10;;;;;;;1.63;100.00;100624.77;107337;1263;72961;-86
2022/12/24 17:42:37;;;;;;;69.30;39.20;;;;;;;1.65;100.00;100631.05;107445;1262;57649;-88
2022/12/24 17:45:07;;;;;;;71.90;40.00;;;;;;;1.70;100.00;100631.91;107396;1266;57708;-86
2022/12/24 17:47:36;;;;;;;80.70;41.10;;;;;;;1.69;100.00;100628.16;107378;1272;72690;-88
2022/12/24 17:50:07;;;;;;;78.30;43.70;;;;;;;1.71;100.00;100628.75;107482;1262;72607;-87
2022/12/24 17:52:36;;;;;;;79.20;43.00;;;;;;;1.71;100.00;100628.27;107518;1266;60095;-86
2022/12/24 17:55:07;;;;;;;93.90;51.70;;;;;;;1.73;100.00;100627.29;107614;1270;73012;-86
2022/12/24 17:57:36;;;;;;;90.80;48.40;;;;;;;1.75;100.00;100622.95;107719;1263;61789;-84
2022/12/24 18:00:06;;;;;;;88.40;48.60;;;;;;;1.68;100.00;100626.83;107523;1259;61018;-86
2022/12/24 18:02:37;;;;;;;82.40;44.20;;;;;;;1.71;100.00;100629.63;107645;1260;72868;-88
2022/12/24 18:05:07;;;;;;;81.30;44.00;;;;;;;1.68;100.00;100633.67;107790;1264;61196;-86
2022/12/24 18:07:35;;;;;;;81.30;44.00;;;;;;;1.77;100.00;100642.27;107757;1267;61634;-87
2022/12/24 18:10:05;;;;;;;78.90;43.90;;;;;;;1.86;100.00;100639.55;107529;1268;74065;-87
2022/12/24 18:12:34;;;;;;;80.20;45.50;;;;;;;1.83;100.00;100632.96;107663;1267;57670;-85
2022/12/24 18:15:05;;;;;;;82.10;45.70;;;;;;;1.84;100.00;100638.58;107577;1258;60215;-88
2022/12/24 18:17:34;;;;;;;124.60;65.80;;;;;;;1.89;100.00;100641.52;107655;1266;62777;-85
2022/12/24 18:20:04;;;;;;;84.70;46.60;;;;;;;1.86;100.00;100640.21;107732;1257;71438;-84
2022/12/24 18:22:33;;;;;;;77.60;44.70;;;;;;;1.87;100.00;100642.58;107600;1269;70745;-86
2022/12/24 18:25:01;;;;;;;133.30;70.40;;;;;;;1.92;100.00;100646.70;107655;1265;73085;-87
2022/12/24 18:27:34;;;;;;;87.00;48.50;;;;;;;1.95;100.00;100651.21;107576;1269;57731;-85
2022/12/24 18:30:05;;;;;;;90.40;47.30;;;;;;;1.97;100.00;100658.03;107554;1259;59257;-87
2022/12/24 18:32:35;;;;;;;84.00;45.70;;;;;;;2.00;100.00;100667.36;107666;1272;62108;-86
2022/12/24 18:35:05;;;;;;;78.30;42.30;;;;;;;2.08;100.00;100670.48;107733;1265;72298;-87
2022/12/24 18:37:35;;;;;;;81.10;43.20;;;;;;;2.13;100.00;100673.20;107600;1267;59566;-86
2022/12/24 18:40:07;;;;;;;77.30;43.90;;;;;;;2.15;100.00;100675.89;107528;1271;74127;-86
2022/12/24 18:42:40;;;;;;;83.00;44.90;;;;;;;2.18;100.00;100677.67;107671;1261;61094;-86
2022/12/24 18:45:10;;;;;;;81.30;44.70;;;;;;;2.20;100.00;100683.10;107483;1257;57681;-86
2022/12/24 18:47:39;;;;;;;97.40;51.20;;;;;;;2.25;100.00;100690.46;107607;1267;73509;-85
2022/12/24 18:50:08;;;;;;;83.60;44.50;;;;;;;2.28;100.00;100689.66;107841;1259;70552;-85
2022/12/24 18:52:37;;;;;;;77.20;42.90;;;;;;;2.29;100.00;100692.86;107784;1264;60536;-88
2022/12/24 18:55:07;;;;;;;63.90;37.60;;;;;;;2.27;100.00;100698.44;107571;1265;63239;-88
2022/12/24 18:57:36;;;;;;;66.00;38.70;;;;;;;2.18;100.00;100698.12;107599;1268;61284;-88
2022/12/24 19:00:07;;;;;;;77.60;44.70;;;;;;;2.19;100.00;100704.10;107809;1260;57785;-86
2022/12/24 19:02:36;;;;;;;70.90;39.80;;;;;;;2.16;100.00;100704.37;107710;1270;62917;-88
2022/12/24 19:05:06;;;;;;;72.60;40.20;;;;;;;2.18;100.00;100699.48;107915;1260;61598;-90
2022/12/24 19:07:35;;;;;;;67.40;39.20;;;;;;;2.19;100.00;100700.66;107699;1264;59922;-87
2022/12/24 19:10:05;;;;;;;75.20;39.90;;;;;;;2.20;100.00;100700.27;107688;1266;73017;-88
2022/12/24 19:12:34;;;;;;;70.40;39.40;;;;;;;2.17;100.00;100704.00;107641;1254;62107;-87
2022/12/24 19:15:05;;;;;;;65.80;37.00;;;;;;;2.14;100.00;100709.27;107778;1263;60963;-86
2022/12/24 19:17:38;;;;;;;66.40;39.70;;;;;;;2.17;100.00;100712.92;107540;1263;73142;-86
2022/12/24 19:20:08;;;;;;;68.10;38.80;;;;;;;2.19;100.00;100721.09;107780;1265;61601;-88
2022/12/24 19:22:37;;;;;;;70.90;39.60;;;;;;;2.22;100.00;100721.19;107632;1265;60435;-87
2022/12/24 19:25:06;;;;;;;69.50;39.80;;;;;;;2.25;100.00;100721.57;107680;1267;72027;-90
2022/12/24 19:27:35;;;;;;;68.70;39.40;;;;;;;2.22;100.00;100724.09;107626;1260;57653;-89
2022/12/24 19:30:06;;;;;;;72.60;40.30;;;;;;;2.21;100.00;100731.34;107759;1257;57642;-85
2022/12/24 19:32:34;;;;;;;70.90;41.30;;;;;;;2.22;100.00;100728.39;107586;1260;72787;-85
2022/12/24 19:35:04;;;;;;;72.30;41.80;;;;;;;2.22;100.00;100729.77;107701;1267;61595;-86
2022/12/24 19:37:32;;;;;;;71.30;40.00;;;;;;;2.18;100.00;100732.16;107683;1266;70423;-88
2022/12/24 19:40:02;;;;;;;71.60;41.20;;;;;;;2.26;100.00;100740.41;107552;1262;73202;-87
2022/12/24 19:42:31;;;;;;;71.30;40.90;;;;;;;2.30;100.00;100741.66;107691;1262;57164;-87
2022/12/24 19:45:00;;;;;;;69.70;42.50;;;;;;;2.28;100.00;100741.54;107644;1261;57130;-85
2022/12/24 19:47:29;;;;;;;69.60;40.00;;;;;;;2.25;100.00;100741.66;107721;1261;62875;-85
2022/12/24 19:49:58;;;;;;;72.60;40.90;;;;;;;2.26;100.00;100740.77;107675;1264;60784;-87
2022/12/24 19:52:27;;;;;;;73.60;42.20;;;;;;;2.23;100.00;100744.65;107725;1269;59980;-86
2022/12/24 19:54:56;;;;;;;70.10;41.30;;;;;;;2.19;100.00;100744.33;107587;1266;64502;-86
2022/12/24 19:57:26;;;;;;;69.80;40.00;;;;;;;2.21;100.00;100750.25;107721;1267;61222;-85
2022/12/24 19:59:55;;;;;;;72.10;40.80;;;;;;;2.24;100.00;100750.30;107965;1263;57093;-86
2022/12/24 20:02:23;;;;;;;86.10;43.00;;;;;;;2.31;100.00;100756.75;108071;1260;74293;-85
2022/12/24 20:04:53;;;;;;;79.40;40.20;;;;;;;2.35;100.00;100757.80;108108;1259;61785;-86
2022/12/24 20:07:22;;;;;;;70.60;39.20;;;;;;;2.35;100.00;100766.39;108012;1266;69466;-87
2022/12/24 20:09:51;;;;;;;71.60;39.30;;;;;;;2.35;100.00;100768.10;108020;1260;63742;-79
2022/12/24 20:12:20;;;;;;;76.00;40.60;;;;;;;2.33;100.00;100776.06;107744;1259;57125;-70
2022/12/24 20:14:49;;;;;;;66.30;37.80;;;;;;;2.34;100.00;100782.76;107583;1267;61030;-82
2022/12/24 20:17:18;;;;;;;70.10;40.20;;;;;;;2.34;100.00;100782.59;107603;1263;73953;-83
2022/12/24 20:19:48;;;;;;;74.10;39.70;;;;;;;2.29;100.00;100786.53;107689;1255;61284;-81
2022/12/24 20:22:17;;;;;;;70.60;40.70;;;;;;;2.26;100.00;100793.70;107472;1273;69548;-83
2022/12/24 20:24:46;;;;;;;80.70;43.20;;;;;;;2.25;100.00;100800.13;107499;1266;63354;-80
2022/12/24 20:27:15;;;;;;;78.90;43.20;;;;;;;2.21;100.00;100800.05;107548;1259;61278;-78
2022/12/24 20:29:44;;;;;;;72.50;42.20;;;;;;;2.21;100.00;100799.91;107575;1263;58002;-84
2022/12/24 20:32:15;;;;;;;81.50;44.60;;;;;;;2.20;100.00;100800.64;107450;1270;73643;-76
2022/12/24 20:34:44;;;;;;;78.50;43.00;;;;;;;2.09;100.00;100803.59;107710;1260;71330;-77
2022/12/24 20:37:14;;;;;;;76.70;42.90;;;;;;;2.05;100.00;100808.54;107662;1269;69138;-80
2022/12/24 20:39:43;;;;;;;75.20;42.80;;;;;;;2.05;100.00;100813.02;107547;1266;72717;-77
2022/12/24 20:42:12;;;;;;;74.90;40.90;;;;;;;2.02;100.00;100815.19;107601;1259;61559;-81
2022/12/24 20:44:41;;;;;;;72.30;38.20;;;;;;;2.12;100.00;100823.76;107404;1258;60759;-87
2022/12/24 20:47:10;;;;;;;73.20;41.60;;;;;;;2.14;100.00;100832.30;107699;1262;61844;-81
2022/12/24 20:49:39;;;;;;;80.40;43.20;;;;;;;2.14;100.00;100839.50;107769;1262;60946;-83
2022/12/24 20:52:08;;;;;;;88.10;48.50;;;;;;;2.14;100.00;100840.17;107634;1265;69293;-73
2022/12/24 20:54:37;;;;;;;84.60;47.40;;;;;;;2.21;100.00;100836.52;107701;1261;74234;-81
2022/12/24 20:57:07;;;;;;;80.00;46.80;;;;;;;2.26;100.00;100832.05;107523;1268;58027;-80
2022/12/24 20:59:36;;;;;;;84.50;46.20;;;;;;;2.27;100.00;100832.16;107739;1260;58094;-79
2022/12/24 21:02:06;;;;;;;73.10;40.30;;;;;;;2.34;100.00;100832.79;107544;1265;73026;-79
2022/12/24 21:04:35;;;;;;;78.40;42.30;;;;;;;2.35;100.00;100830.65;107679;1259;71753;-80
2022/12/24 21:07:03;;;;;;;76.70;40.50;;;;;;;2.33;100.00;100837.80;107726;1267;62000;-78
2022/12/24 21:09:32;;;;;;;74.90;41.80;;;;;;;2.34;100.00;100836.18;107657;1262;74101;-79
2022/12/24 21:14:49;;;;;;;81.30;42.20;;;;;;;2.30;100.00;100826.73;107653;1266;60520;-80
2022/12/24 21:17:17;;;;;;;58.30;30.60;;;;;;;2.28;100.00;100822.67;107582;1268;73937;-85
2022/12/24 21:19:47;;;;;;;58.60;32.40;;;;;;;2.47;100.00;100834.21;107496;1254;72223;-80
2022/12/24 21:22:16;;;;;;;66.10;38.10;;;;;;;2.31;100.00;100834.77;107391;1268;70920;-82
2022/12/24 21:24:44;;;;;;;66.20;37.30;;;;;;;2.18;100.00;100834.70;107514;1264;74153;-81
2022/12/24 21:27:13;;;;;;;63.30;35.50;;;;;;;2.09;100.00;100835.88;107505;1264;57415;-85
2022/12/24 21:29:42;;;;;;;64.90;38.30;;;;;;;2.13;100.00;100835.41;107451;1263;57667;-80
2022/12/24 21:32:11;;;;;;;79.90;45.90;;;;;;;2.20;100.00;100837.22;107638;1268;63032;-84